ETEB 261056Z AUTO 21003KT 9999 CLR 32/21 A3026 RMK AO2 SLP230 T03180210 $ ETIK 261056Z AUTO 29004KT 9999 FEW200 32/21 A3024 RMK AO2 SLP225 T03220211 EDDE 261120Z 26010KT CAVOK 32/18 Q1023 NOSIG EDDF 261120Z 03007KT 360V060 CAVOK 35/18 Q1022 NOSIG ETIC 261056Z AUTO 00000KT 9999 CLR 33/13 A3023 RMK AO2 SLP215 T03330133 $ EDQM 261120Z 23009KT 180V280 CAVOK 33/15 Q1025 ETIH 261056Z AUTO 00000KT 9999 CLR 32/22 A3026 RMK AO2 SLP227 T03230221 ETSI 261120Z 08005KT 9999 FEW400 32/16 Q1024 BLU+BLU+ EDDP 261120Z 29010KT 240V350 CAVOK 35/18 Q1021 NOSIG EDDM 261120Z VRB03KT CAVOK 31/18 Q1025 NOSIG ETSN 261120Z 15002KT 9999 FEW280 32/18 Q1024 BLU+BLU+ ETHN 261120Z 01003KT 9999 FEW360 31/21 Q1025 BLU+BLU+ EDDN 261120Z VRB04KT CAVOK 35/17 Q1023 NOSIG EDDS 261120Z 02003KT 270V070 CAVOK 33/19 Q1024 NOSIG

METAR Messwerte

Klicken Sie auf einen Ort, um die 36h-Historie abzurufen

Ort
m ü. NN
Zeit Temperatur Taupunkt Rel.
Luftfeuchte
Luftdruck:
Altimeter
NN
Station
Wind in Beaufort
(Knoten)
Sichtweite
(Meter)
Wolken
(Meter über Grund)
Wettererscheinung
Ansbach
467
Mi 26.06. 12:56322152 %1025
1022
970
SSW 2 (3)>= 10000  
Bad Windsheim / Illesheim
325
Mi 26.06. 12:56322152 %1024
1022
985
WNW 2 (4)>= 10000Leicht bewölkt (6100) 
Erfurt-Bindersleben
323
Mi 26.06. 13:20321843 %1023
1021
984
W 3 (10)>= 10000Nicht signifikant 
Frankfurt
113
Mi 26.06. 13:20351837 %1022
1021
1008
NNO 3 (7)
N - ONO
>= 10000Nicht signifikant 
Grafenwöhr
415
Mi 26.06. 12:56331330 %1024
1021
975
Windstill>= 10000  
Hof
568
Mi 26.06. 13:20331534 %1025
1021
958
SW 3 (9)
S - W
>= 10000Nicht signifikant 
Hohenfels
442
Mi 26.06. 12:56322256 %1025
1022
973
Windstill>= 10000  
Ingolstadt
370
Mi 26.06. 13:20321638 %1024
1022
980
O 2 (5)>= 10000Leicht bewölkt (12000) 
Leipzig-Schkeuditz
149
Mi 26.06. 13:20351837 %1021
1020
1003
WNW 3 (10)
WSW - N
>= 10000Nicht signifikant 
München
447
Mi 26.06. 13:20311846 %1025
1022
972
Uml 2 (3)>= 10000Nicht signifikant 
Neuburg/Donau
387
Mi 26.06. 13:20321843 %1024
1021
978
SSO 1 (2)>= 10000Leicht bewölkt (8500) 
Niederstetten
473
Mi 26.06. 13:20312155 %1025
1022
969
N 2 (3)>= 10000Leicht bewölkt (11000) 
Nürnberg
312
Mi 26.06. 13:20351734 %1023
1021
986
Uml 2 (4)>= 10000Nicht signifikant 
Stuttgart
419
Mi 26.06. 13:20331944 %1024
1021
974
NNO 2 (3)
W - ONO
>= 10000Nicht signifikant 

Altimeter: Einstellung am Altimeter (Höhenmesser), die Höhe 0 muss auf diesen Luftdruckwert zeigen, damit das Gerät die Stationshöhe richtig anzeigt.

NN: Luftdruck reduziert auf "Normal Null", auf Meereshöhe, dieser von der Temperatur abhängige Wert wird bisweilen unkorrekt einfach als "Luftdruck" bezeichnet. Eigentlich nur eine fiktive Größe, die es erlaubt, Stationen auf unterschiedlichen Höhen miteinander zu vergleichen.

Station: Realer Luftdruck an der Station.